Latest Weather Observations for Parafield

IDS60901

Issued at 8:11 pm CST Monday 3 August 2015 (issued every 10 minutes, with the page automatically refreshed every 10 minutes)

About weather observations | Map of Adelaide area stations | Latest observations for Adelaide area | Other Formats
Station Details ID: 023013 Name: PARAFIELD AIRPORT Lat: -34.80 Lon: 138.63 Height: 9.5 m
Data from the previous 72 hours. | See also: Recent months at Parafield
Date/Time
CST
Tmp

°C
App
Tmp
°C
Dew
Point
°C
Rel
Hum
%
Delta-T

°C
Wind Press
QNH
hPa
Press
MSL
hPa
Rain
since
9 am
mm
Dir
 
Spd
km/h
Gust
km/h
Spd
kts
Gust
kts
03/08:00pm 9.3 7.0 7.4 88 0.9 SSW 9 13 5 7 1027.4 1027.4 0.0
03/07:30pm 9.2 6.4 7.0 86 1.0 SW 11 17 6 9 1027.3 1027.3 0.0
03/07:00pm 9.0 5.6 6.1 82 1.3 SW 13 15 7 8 1027.0 1027.0 0.0
03/06:30pm 9.7 6.3 7.6 87 1.0 WSW 15 17 8 9 1026.8 1026.8 0.0
03/06:00pm 10.0 6.8 6.9 81 1.4 SW 13 17 7 9 1026.5 1026.5 0.0
03/05:30pm 10.4 6.3 6.4 76 1.9 SW 17 20 9 11 1026.5 1026.5 0.0
03/05:00pm 10.6 6.5 6.4 75 2.0 SW 17 22 9 12 1026.3 1026.3 0.0
03/04:30pm 11.1 7.1 6.5 73 2.2 SW 17 22 9 12 1026.2 1026.2 0.0
03/04:00pm 12.4 7.6 7.5 72 2.4 SW 22 30 12 16 1026.0 1026.0 0.0
03/03:30pm 12.3 7.4 7.0 70 2.5 SW 22 30 12 16 1025.7 1025.7 0.0
03/03:00pm 12.9 7.5 6.3 64 3.1 SW 24 32 13 17 1025.3 1025.3 0.0
03/02:30pm 12.9 7.7 5.6 61 3.4 SW 22 33 12 18 1025.1 1025.1 0.0
03/02:00pm 11.7 5.8 7.4 75 2.1 SW 28 39 15 21 1025.1 1025.1 0.0
03/01:30pm 13.4 8.6 7.2 66 3.0 SW 22 32 12 17 1025.1 1025.1 0.0
03/01:00pm 13.4 8.1 6.7 64 3.2 SW 24 35 13 19 1025.4 1025.4 0.0
03/12:30pm 12.7 6.7 7.0 68 2.7 SW 28 35 15 19 1025.5 1025.5 0.0
03/12:00pm 13.6 7.7 7.6 67 2.9 SW 28 39 15 21 1025.7 1025.7 0.0
03/11:30am 13.3 7.6 6.9 65 3.1 SW 26 35 14 19 1025.8 1025.8 0.0
03/11:00am 12.3 7.2 7.6 73 2.3 SW 24 35 13 19 1025.9 1025.9 0.0
03/10:30am 11.9 6.8 7.8 76 2.0 SW 24 32 13 17 1025.9 1025.9 0.0
03/10:00am 12.3 6.9 8.0 75 2.1 SW 26 35 14 19 1025.6 1025.6 0.0
03/09:30am 12.0 6.6 8.1 77 1.9 SW 26 35 14 19 1025.5 1025.5 0.0
03/09:00am 11.8 7.6 8.1 78 1.8 SW 20 28 11 15 1025.2 1025.2 2.6
03/08:30am 11.4 7.2 8.3 81 1.5 SW 20 28 11 15 1024.8 1024.8 2.6
03/08:00am 10.7 7.1 8.5 86 1.1 SW 17 26 9 14 1024.5 1024.5 2.6
03/07:30am 10.5 5.6 8.4 87 1.0 SW 24 35 13 19 1024.3 1024.3 2.4
03/07:00am 10.8 6.5 8.0 83 1.4 WSW 20 30 11 16 1023.7 1023.7 2.4
03/06:30am 9.8 6.1 7.9 88 0.9 WSW 17 24 9 13 1023.5 1023.5 2.4
03/06:04am 10.0 5.5 8.6 91 0.7 WSW 22 33 12 18 1023.4 1023.4 2.2
03/06:00am 10.0 4.4 8.6 91 0.7 WSW 28 44 15 24 1023.3 1023.3 2.2
03/05:52am 10.2 4.5 8.5 89 0.8 WSW 28 54 15 29 1023.3 1023.3 2.2
03/05:51am 10.2 4.9 8.5 89 0.8 WSW 26 54 14 29 1023.3 1023.3 2.2
03/05:30am 10.7 6.6 8.5 86 1.1 W 20 28 11 15 1023.0 1023.0 2.0
03/05:00am 10.5 7.2 8.1 85 1.2 W 15 17 8 9 1022.9 1022.9 2.0
03/04:30am 10.4 7.7 9.0 91 0.7 WSW 13 15 7 8 1022.9 1022.9 2.0
03/04:00am 10.2 5.8 8.8 91 0.7 SW 22 35 12 19 1022.6 1022.6 2.0
03/03:53am 10.3 4.4 8.9 91 0.7 WSW 30 37 16 20 1022.6 1022.6 2.0
03/03:40am 10.2 4.7 9.0 92 0.6 WSW 28 52 15 28 1022.7 1022.7 2.0
03/03:37am 10.3 5.5 8.9 91 0.7 WSW 24 52 13 28 1022.7 1022.7 2.0
03/03:30am 10.2 6.7 8.8 91 0.7 WSW 17 22 9 12 1022.8 1022.8 1.6
03/03:21am 9.8 6.2 8.4 91 0.7 WSW 17 24 9 13 1022.8 1022.8 1.6
03/03:16am 9.9 5.8 8.7 92 0.6 WSW 20 32 11 17 1022.8 1022.8 1.6
03/03:03am 10.4 4.5 9.2 92 0.6 WSW 30 48 16 26 1022.9 1022.9 1.4
03/03:02am 10.4 4.9 9.2 92 0.6 WSW 28 48 15 26 1022.8 1022.8 1.4
03/03:00am 10.6 5.6 9.4 92 0.6 WSW 26 48 14 26 1022.8 1022.8 1.4
03/02:50am 10.8 6.2 9.6 92 0.6 WSW 24 35 13 19 1022.7 1022.7 0.8
03/02:31am 10.8 5.0 9.4 91 0.7 WSW 30 44 16 24 1022.7 1022.7 0.6
03/02:30am 10.9 5.1 9.3 90 0.8 WSW 30 44 16 24 1022.7 1022.7 0.6
03/02:20am 11.0 6.3 9.1 88 0.9 WSW 24 32 13 17 1022.5 1022.5 0.4
03/02:07am 10.8 5.4 9.6 92 0.6 W 28 37 15 20 1022.5 1022.5 0.4
03/02:00am 10.9 5.9 9.7 92 0.6 WSW 26 35 14 19 1022.7 1022.7 0.4
03/01:48am 11.1 7.2 9.5 90 0.8 W 20 35 11 19 1022.8 1022.8 0.4
03/01:47am 11.2 7.5 9.5 89 0.9 W 19 28 10 15 1022.8 1022.8 0.4
03/01:30am 11.0 7.6 9.1 88 0.9 WNW 17 20 9 11 1022.6 1022.6 0.2
03/01:00am 11.4 7.0 9.0 85 1.2 W 22 30 12 16 1022.5 1022.5 0.2
03/12:30am 11.6 7.6 9.0 84 1.3 W 20 26 11 14 1022.6 1022.6 0.2
03/12:16am 11.5 7.5 9.1 85 1.2 WSW 20 33 11 18 1022.8 1022.8 0.2
03/12:01am 11.4 7.0 9.1 86 1.1 SW 22 30 12 16 1022.9 1022.9 0.2
03/12:00am 11.4 7.0 9.1 86 1.1 WSW 22 30 12 16 1022.9 1022.9 0.2
 
Date/Time
CST
Tmp

°C
App
Tmp
°C
Dew
Point
°C
Rel
Hum
%
Delta-T

°C
Wind Press
QNH
hPa
Press
MSL
hPa
Rain
since
9 am
mm
Dir
 
Spd
km/h
Gust
km/h
Spd
kts
Gust
kts
02/11:30pm 11.6 7.8 9.0 84 1.3 W 19 24 10 13 1022.8 1022.8 0.2
02/11:00pm 10.7 7.5 8.6 87 1.0 WNW 15 20 8 11 1022.6 1022.6 0.2
02/10:30pm 10.8 6.7 8.0 83 1.4 WNW 19 24 10 13 1022.7 1022.7 0.2
02/10:00pm 11.1 6.9 8.1 82 1.5 W 20 26 11 14 1022.7 1022.7 0.2
02/09:30pm 11.4 7.2 8.3 81 1.5 W 20 30 11 16 1022.7 1022.7 0.2
02/09:00pm 11.6 7.7 8.6 82 1.5 W 19 24 10 13 1022.7 1022.7 0.2
02/08:30pm 11.2 7.2 8.9 86 1.1 WSW 20 26 11 14 1022.6 1022.6 0.2
02/08:00pm 11.0 7.2 8.9 87 1.0 W 19 24 10 13 1022.3 1022.3 0.2
02/07:34pm 11.5 7.3 9.8 89 0.9 W 22 30 12 16 1022.0 1022.0 0.2
02/07:30pm 11.5 7.7 9.8 89 0.9 W 20 30 11 16 1022.0 1022.0 0.2
02/07:22pm 11.6 7.4 9.9 89 0.9 W 22 32 12 17 1022.0 1022.0 0.2
02/07:00pm 11.6 9.1 9.7 88 1.0 W 13 17 7 9 1021.8 1021.8 0.0
02/06:30pm 11.2 7.4 8.9 86 1.1 W 19 24 10 13 1021.4 1021.5 0.0
02/06:00pm 11.3 7.4 9.4 88 1.0 WSW 20 28 11 15 1021.0 1021.1 0.0
02/05:30pm 11.7 8.0 9.6 87 1.1 W 19 26 10 14 1020.8 1020.9 0.0
02/05:00pm 12.7 8.6 8.8 77 2.0 W 20 26 11 14 1020.5 1020.6 0.0
02/04:30pm 13.3 8.5 9.0 75 2.2 W 24 37 13 20 1020.3 1020.4 0.0
02/04:00pm 13.2 8.0 8.9 75 2.2 W 26 35 14 19 1020.2 1020.3 0.0
02/03:30pm 13.6 8.4 8.9 73 2.4 W 26 35 14 19 1020.3 1020.4 0.0
02/03:00pm 13.6 8.0 8.7 72 2.5 W 28 37 15 20 1019.9 1020.0 0.0
02/02:30pm 13.3 7.6 8.4 72 2.4 W 28 37 15 20 1019.7 1019.8 0.0
02/02:00pm 14.2 9.3 8.6 69 2.8 W 24 35 13 19 1019.7 1019.8 0.0
02/01:30pm 14.4 9.2 9.0 70 2.7 W 26 35 14 19 1019.8 1019.9 0.0
02/01:00pm 14.0 7.8 8.0 67 3.0 W 30 39 16 21 1019.9 1020.0 0.0
02/12:30pm 13.2 7.0 7.9 70 2.6 W 30 39 16 21 1020.2 1020.3 0.0
02/12:00pm 13.6 7.9 8.2 70 2.7 WNW 28 39 15 21 1020.4 1020.5 0.0
02/11:30am 13.0 6.9 8.1 72 2.4 W 30 41 16 22 1020.7 1020.8 0.0
02/11:00am 12.6 6.7 7.5 71 2.5 W 28 37 15 20 1020.7 1020.8 0.0
02/10:30am 12.6 6.8 7.9 73 2.3 W 28 39 15 21 1020.7 1020.8 0.0
02/10:00am 12.0 6.4 7.1 72 2.4 W 26 37 14 20 1020.7 1020.8 0.0
02/09:30am 11.9 6.6 6.8 71 2.4 W 24 32 13 17 1020.4 1020.5 0.0
02/09:00am 11.1 7.6 7.4 78 1.8 W 15 20 8 11 1020.1 1020.2 10.2
02/08:30am 10.0 7.7 7.3 83 1.3 WNW 9 13 5 7 1020.0 1020.1 10.2
02/08:00am 8.9 6.0 6.5 85 1.1 WSW 11 13 6 7 1020.0 1020.1 10.2
02/07:30am 9.2 5.5 6.3 82 1.3 WSW 15 20 8 11 1019.6 1019.7 10.2
02/07:00am 8.9 7.1 8.0 94 0.4 WNW 7 13 4 7 1019.3 1019.4 10.2
02/06:30am 8.4 6.7 7.6 95 0.4 W 6 9 3 5 1018.9 1019.0 10.2
02/06:00am 8.1 6.2 7.7 97 0.2 W 7 9 4 5 1018.6 1018.7 10.2
02/05:30am 7.8 5.5 7.4 97 0.2 NE 9 11 5 6 1018.3 1018.4 10.0
02/05:00am 8.0 6.1 7.6 97 0.2 NE 7 9 4 5 1018.4 1018.5 10.0
02/04:30am 7.9 5.6 7.5 97 0.2 NNE 9 11 5 6 1018.3 1018.4 10.0
02/04:00am 7.7 5.7 7.3 97 0.2 NNE 7 11 4 6 1018.3 1018.4 10.0
02/03:30am 7.0 4.9 6.6 97 0.2 NE 7 9 4 5 1018.4 1018.5 10.0
02/03:18am 7.2 5.1 6.6 96 0.3 NNE 7 9 4 5 1018.3 1018.4 10.0
02/03:00am 7.4 5.5 6.8 96 0.3 N 6 9 3 5 1018.6 1018.7 10.0
02/02:39am 7.4 6.7 6.8 96 0.3 CALM 0 0 0 0 1018.5 1018.6 10.0
02/02:30am 7.4 6.7 6.8 96 0.3 CALM 0 0 0 0 1018.5 1018.6 10.0
02/02:00am 8.2 7.6 7.4 95 0.4 CALM 0 0 0 0 1018.7 1018.8 10.0
02/01:30am 7.9 7.2 6.8 93 0.5 CALM 0 0 0 0 1018.9 1019.0 10.0
02/01:00am 8.0 7.3 6.8 92 0.6 CALM 0 0 0 0 1018.8 1018.9 10.0
02/12:30am 8.4 6.6 7.0 91 0.7 W 6 11 3 6 1019.1 1019.2 10.0
02/12:00am 8.5 7.9 7.6 94 0.4 CALM 0 0 0 0 1019.4 1019.5 10.0
 
Date/Time
CST
Tmp

°C
App
Tmp
°C
Dew
Point
°C
Rel
Hum
%
Delta-T

°C
Wind Press
QNH
hPa
Press
MSL
hPa
Rain
since
9 am
mm
Dir
 
Spd
km/h
Gust
km/h
Spd
kts
Gust
kts
01/11:30pm 8.6 8.1 7.8 95 0.4 CALM 0 0 0 0 1019.1 1019.2 10.0
01/11:00pm 8.6 6.9 7.7 94 0.4 SSW 6 7 3 4 1019.0 1019.1 9.8
01/10:30pm 8.8 6.6 8.0 95 0.4 SSW 9 13 5 7 1019.0 1019.1 9.4
01/10:29pm 8.8 6.6 8.0 95 0.4 SSW 9 13 5 7 1019.0 1019.1 9.4
01/10:00pm 9.1 6.6 8.3 95 0.4 SSW 11 13 6 7 1018.5 1018.6 8.6
01/09:38pm 9.5 7.9 8.9 96 0.3 WSW 7 9 4 5 1018.4 1018.5 7.8
01/09:30pm 9.6 8.1 9.0 96 0.3 W 7 9 4 5 1018.3 1018.4 7.8
01/09:00pm 9.5 9.2 8.7 95 0.4 CALM 0 0 0 0 1018.0 1018.1 6.8
01/08:30pm 9.6 8.2 8.7 94 0.4 S 6 9 3 5 1017.8 1017.9 6.0
01/08:00pm 9.7 7.7 8.8 94 0.4 SSW 9 17 5 9 1017.7 1017.8 5.4
01/07:30pm 9.9 8.5 8.7 92 0.6 ENE 6 6 3 3 1017.5 1017.6 5.4
01/07:00pm 9.9 8.8 8.5 91 0.7 SSW 4 6 2 3 1017.4 1017.5 5.4
01/06:30pm 10.0 8.0 8.8 92 0.6 S 9 11 5 6 1017.1 1017.2 5.2
01/06:00pm 10.3 8.7 8.9 91 0.7 SSW 7 9 4 5 1016.5 1016.5 5.2
01/05:30pm 10.7 10.5 9.0 89 0.8 CALM 0 0 0 0 1016.6 1016.7 5.2
01/05:00pm 11.0 9.6 8.8 86 1.1 E 6 7 3 4 1016.1 1016.1 5.2
01/04:30pm 11.2 9.3 8.9 86 1.1 E 9 13 5 7 1016.0 1016.0 5.2
01/04:00pm 11.2 9.0 9.5 89 0.9 SSE 11 13 6 7 1016.0 1016.0 5.2
01/03:30pm 11.3 9.0 8.9 85 1.2 ESE 11 15 6 8 1015.5 1015.5 5.2
01/03:00pm 11.5 10.4 9.8 89 0.9 S 6 6 3 3 1015.7 1015.7 5.2
01/02:30pm 11.4 10.1 9.3 87 1.1 ESE 6 9 3 5 1015.8 1015.8 4.2
01/02:00pm 11.5 9.6 9.1 85 1.2 SE 9 13 5 7 1015.6 1015.6 4.2
01/01:36pm 11.3 8.8 9.6 89 0.9 SSW 13 17 7 9 1016.4 1016.4 4.2
01/01:30pm 11.5 9.1 9.9 90 0.8 SSW 13 20 7 11 1016.6 1016.7 4.2
01/01:22pm 11.5 8.3 10.1 91 0.7 SW 17 22 9 12 1016.9 1017.0 4.2
01/01:00pm 11.6 10.4 10.3 92 0.7 WNW 7 13 4 7 1018.0 1018.1 4.0
01/12:48pm 11.6 9.9 10.0 90 0.8 NNE 9 15 5 8 1018.0 1018.1 4.0
01/12:30pm 11.6 9.6 10.2 91 0.7 E 11 15 6 8 1015.9 1015.9 4.0
01/12:14pm 11.1 8.7 9.9 92 0.6 S 13 15 7 8 1016.7 1016.8 3.8
01/12:00pm 11.0 7.8 9.8 92 0.6 SW 17 20 9 11 1018.0 1018.1 3.6
01/11:44am 11.3 6.8 10.2 93 0.6 WSW 24 32 13 17 1019.0 1019.1 3.0
01/11:43am 11.4 7.0 10.3 93 0.6 WSW 24 32 13 17 1018.9 1019.0 3.0
01/11:30am 12.0 10.9 10.6 91 0.7 NW 7 13 4 7 1016.9 1017.0 3.0
01/11:00am 11.6 9.4 10.7 94 0.5 NNE 13 17 7 9 1016.2 1016.2 3.0
01/10:30am 11.4 10.1 10.0 91 0.7 ENE 7 11 4 6 1017.2 1017.3 1.8
01/10:00am 11.4 8.7 10.3 93 0.6 SSW 15 20 8 11 1017.1 1017.2 1.6
01/09:30am 11.1 8.4 10.2 94 0.5 SSW 15 22 8 12 1016.4 1016.4 1.4
01/09:00am 11.1 8.8 10.5 96 0.3 S 13 17 7 9 1015.9 1016.0 12.4
01/08:30am 11.1 8.1 10.5 96 0.3 SSW 17 20 9 11 1015.7 1015.8 12.2
01/08:00am 11.1 8.5 10.6 97 0.3 SSW 15 19 8 10 1015.9 1016.0 11.8
01/07:30am 11.1 9.2 10.6 97 0.3 SW 11 15 6 8 1015.1 1015.2 11.2
01/07:01am 11.0 9.5 10.4 96 0.3 WSW 9 11 5 6 1015.2 1015.3 9.6
01/07:00am 11.0 9.5 10.4 96 0.3 WSW 9 11 5 6 1015.2 1015.3 9.6
01/06:44am 10.9 9.7 10.3 96 0.3 SW 7 9 4 5 1014.8 1014.9 8.6
01/06:30am 10.9 9.7 10.3 96 0.3 SW 7 11 4 6 1014.5 1014.6 7.8
01/06:11am 10.9 9.3 10.1 95 0.4 SSW 9 13 5 7 1014.3 1014.4 7.2
01/06:00am 10.9 8.9 10.1 95 0.4 SSW 11 13 6 7 1014.2 1014.3 6.8
01/05:56am 11.0 9.0 10.2 95 0.4 SSW 11 15 6 8 1014.1 1014.2 6.6
01/05:50am 11.0 8.2 10.1 94 0.5 SSW 15 20 8 11 1014.1 1014.2 6.6
01/05:30am 11.1 7.4 10.2 94 0.5 SSW 20 30 11 16 1013.8 1013.9 6.2
01/05:14am 11.3 5.7 10.2 93 0.6 SSW 30 41 16 22 1013.7 1013.7 6.0
01/05:00am 13.1 8.9 12.5 96 0.3 WNW 26 39 14 21 1013.3 1013.3 5.8
01/04:30am 13.6 10.9 12.8 95 0.4 NW 19 26 10 14 1012.7 1012.7 4.6
01/04:00am 13.7 10.8 12.8 94 0.5 NNW 20 26 11 14 1012.4 1012.4 3.8
01/03:33am 13.6 10.6 12.5 93 0.6 NNW 20 33 11 18 1012.7 1012.7 3.6
01/03:30am 13.6 10.6 12.5 93 0.6 NNW 20 33 11 18 1012.6 1012.6 3.6
01/03:00am 13.7 11.2 12.4 92 0.7 NNW 17 26 9 14 1012.8 1012.8 2.6
01/02:30am 13.7 12.0 12.4 92 0.7 N 13 15 7 8 1012.8 1012.8 1.0
01/02:00am 13.7 12.0 12.3 91 0.8 N 13 15 7 8 1012.9 1012.9 0.4
01/01:30am 13.5 12.1 12.2 92 0.7 N 11 15 6 8 1012.9 1012.9 0.4
01/01:00am 13.4 11.2 12.0 91 0.8 N 15 20 8 11 1013.0 1013.0 0.4
01/12:30am 13.5 10.8 11.7 89 1.0 N 17 24 9 13 1013.3 1013.3 0.0
01/12:00am 13.6 10.3 11.5 87 1.1 N 20 28 11 15 1013.4 1013.4 0.0
 
Date/Time
CST
Tmp

°C
App
Tmp
°C
Dew
Point
°C
Rel
Hum
%
Delta-T

°C
Wind Press
QNH
hPa
Press
MSL
hPa
Rain
since
9 am
mm
Dir
 
Spd
km/h
Gust
km/h
Spd
kts
Gust
kts
31/11:30pm 13.5 10.7 11.4 87 1.1 N 17 20 9 11 1013.8 1013.9 0.0
31/11:00pm 13.4 10.4 10.8 84 1.4 N 17 20 9 11 1013.9 1014.0 0.0
31/10:30pm 13.7 10.4 9.6 76 2.1 N 17 22 9 12 1014.0 1014.1 0.0
31/10:00pm 13.8 10.4 9.0 73 2.4 N 17 22 9 12 1014.0 1014.1 0.0
31/09:30pm 12.4 10.3 9.6 83 1.4 NNE 11 13 6 7 1014.2 1014.3 0.0
31/09:00pm 12.5 11.3 9.5 82 1.5 ENE 6 7 3 4 1014.4 1014.5 0.0
31/08:30pm 11.6 10.1 9.2 85 1.2 NE 7 9 4 5 1014.5 1014.6 0.0

Latest Capital City Observations: Canberra | Sydney | Melbourne | Brisbane | Adelaide | Perth | Hobart | Darwin

Other Formats:

Comma delimited format used in spreadsheet applications
http://www.bom.gov.au/fwo/IDS60901/IDS60901.95677.axf

JavaScript Object Notation format (JSON) in row-major order
http://www.bom.gov.au/fwo/IDS60901/IDS60901.95677.json